Time;durP1;ratioP1;P1;durP2;ratioP2;P2;SDS_P1;SDS_P2;PMS_P1;PMS_P2;Temp;Humidity;BMP_temperature;BMP_pressure;BME280_temperature;BME280_humidity;BME280_pressure;Samples;Min_cycle;Max_cycle;Signal;HPM_P1;HPM_P2
2021/06/19 00:01:28;;;;;;;12.77;7.60;;;;;;;23.13;70.06;101122.16;5122603;28;20166;-76
2021/06/19 00:03:54;;;;;;;9.57;7.17;;;;;;;23.09;69.80;101122.38;5105648;28;20171;-76
2021/06/19 00:06:19;;;;;;;7.70;6.90;;;;;;;23.09;69.65;101118.78;5105169;28;20692;-76
2021/06/19 00:08:45;;;;;;;10.03;6.73;;;;;;;23.10;69.64;101117.50;5122507;28;20178;-75
2021/06/19 00:11:10;;;;;;;8.13;6.90;;;;;;;23.12;69.44;101117.75;5105475;28;20174;-74
2021/06/19 00:13:36;;;;;;;10.23;7.00;;;;;;;23.15;69.52;101111.88;5088244;28;20185;-77
2021/06/19 00:16:01;;;;;;;10.63;7.30;;;;;;;23.17;69.39;101106.50;5105448;28;20161;-74
2021/06/19 00:18:27;;;;;;;9.90;6.87;;;;;;;23.18;69.21;101105.22;5122112;28;20166;-76
2021/06/19 00:20:52;;;;;;;10.60;6.83;;;;;;;23.18;68.93;101110.88;5105261;28;20161;-73
2021/06/19 00:23:18;;;;;;;12.07;7.10;;;;;;;23.17;69.18;101105.72;5105255;28;20178;-74
2021/06/19 00:25:44;;;;;;;11.37;6.73;;;;;;;23.12;68.99;101104.41;5104997;28;20240;-73
2021/06/19 00:28:09;;;;;;;17.50;6.83;;;;;;;23.14;68.87;101109.56;5122286;28;20198;-75
2021/06/19 00:30:35;;;;;;;9.30;6.63;;;;;;;23.14;68.95;101107.50;5105110;28;20181;-76
2021/06/19 00:33:00;;;;;;;10.60;6.67;;;;;;;23.17;69.00;101103.66;5105130;28;20172;-73
2021/06/19 00:35:26;;;;;;;13.33;7.17;;;;;;;23.21;69.07;101109.88;5123048;28;20249;-72
2021/06/19 00:37:51;;;;;;;12.00;7.20;;;;;;;23.22;68.79;101099.34;5113793;28;20176;-74
2021/06/19 00:40:18;;;;;;;9.50;6.73;;;;;;;23.19;68.98;101103.19;5091048;28;20199;-73
2021/06/19 00:42:57;;;;;;;12.67;7.07;;;;;;;23.22;68.72;101088.81;5108142;28;20264;-77
2021/06/19 00:45:24;;;;;;;12.20;7.37;;;;;;;23.17;68.89;101086.69;5091040;28;20232;-74
2021/06/19 00:47:49;;;;;;;13.73;7.30;;;;;;;23.23;68.95;101095.25;5108218;28;20171;-74
2021/06/19 00:50:16;;;;;;;12.40;7.53;;;;;;;23.25;68.99;101092.66;5091082;28;20171;-73
2021/06/19 00:52:42;;;;;;;9.93;7.43;;;;;;;23.23;69.19;101090.34;5091049;28;20667;-72
2021/06/19 00:55:08;;;;;;;18.60;7.80;;;;;;;23.18;69.26;101084.69;5074438;28;20184;-73
2021/06/19 00:57:34;;;;;;;11.07;7.70;;;;;;;23.21;69.16;101083.66;5090615;28;20188;-72
2021/06/19 01:00:00;;;;;;;14.17;7.73;;;;;;;23.23;69.09;101084.69;5108107;28;20174;-73
2021/06/19 01:02:26;;;;;;;15.23;7.40;;;;;;;23.21;69.38;101069.50;5090582;28;20263;-74
2021/06/19 01:04:51;;;;;;;10.67;8.07;;;;;;;23.22;69.43;101065.41;5091083;28;20271;-75
2021/06/19 01:09:11;;;;;;;17.37;8.03;;;;;;;23.17;69.41;101061.25;5140654;27;20539;-75
2021/06/19 01:11:38;;;;;;;15.60;7.83;;;;;;;23.17;69.58;101066.13;5106080;28;20169;-76
2021/06/19 01:14:03;;;;;;;17.47;8.53;;;;;;;23.18;69.49;101071.31;5106131;28;20193;-74
2021/06/19 01:16:29;;;;;;;14.40;8.53;;;;;;;23.17;69.70;101075.38;5105973;28;20169;-76
2021/06/19 01:18:55;;;;;;;8.07;7.27;;;;;;;23.16;69.65;101073.06;5106009;28;20173;-75
2021/06/19 01:21:22;;;;;;;13.10;7.90;;;;;;;23.14;69.29;101081.28;5089235;28;20227;-76
2021/06/19 01:23:47;;;;;;;9.37;7.27;;;;;;;23.14;69.25;101078.47;5123187;28;20194;-76
2021/06/19 01:26:17;;;;;;;14.70;7.63;;;;;;;23.11;69.20;101068.16;5105964;28;20174;-75
2021/06/19 01:28:43;;;;;;;9.77;7.50;;;;;;;23.10;69.23;101066.63;5122882;28;20221;-74
2021/06/19 01:31:09;;;;;;;11.50;7.90;;;;;;;23.13;69.46;101066.38;5089095;28;20175;-74
2021/06/19 01:33:36;;;;;;;12.90;8.57;;;;;;;23.12;69.09;101064.03;5122860;28;20204;-74
2021/06/19 01:36:36;;;;;;;12.57;8.73;;;;;;;23.11;69.38;101065.34;5140485;27;20532;-74
2021/06/19 01:39:02;;;;;;;14.83;10.67;;;;;;;23.13;69.26;101060.72;5106438;28;20176;-75
2021/06/19 01:41:29;;;;;;;10.93;9.73;;;;;;;23.10;69.28;101053.28;5124585;28;20256;-74
2021/06/19 01:44:08;;;;;;;10.60;8.63;;;;;;;23.12;69.55;101062.00;5106779;28;20195;-74
2021/06/19 01:46:35;;;;;;;12.23;10.13;;;;;;;23.09;69.67;101056.59;5106374;28;20232;-74
2021/06/19 01:49:57;;;;;;;12.17;9.23;;;;;;;23.03;69.85;101053.75;5140508;27;20523;-75
2021/06/19 01:52:22;;;;;;;12.90;9.73;;;;;;;23.08;69.94;101066.38;5123011;28;20562;-74
2021/06/19 01:54:48;;;;;;;11.67;8.20;;;;;;;23.11;69.90;101060.47;5089047;28;20165;-76
2021/06/19 01:57:13;;;;;;;12.30;8.87;;;;;;;23.11;69.86;101056.84;5123211;28;20172;-75
2021/06/19 01:59:39;;;;;;;12.60;8.63;;;;;;;23.13;69.61;101055.06;5089543;28;20196;-73
2021/06/19 02:02:04;;;;;;;10.93;8.50;;;;;;;23.13;69.74;101046.59;5106735;28;20177;-74
2021/06/19 02:04:33;;;;;;;13.57;8.27;;;;;;;23.15;69.58;101041.22;5123202;28;20178;-74
2021/06/19 02:06:59;;;;;;;11.30;8.13;;;;;;;23.18;69.36;101053.59;5106125;28;20574;-74
2021/06/19 02:09:24;;;;;;;11.47;8.00;;;;;;;23.16;69.32;101050.44;5122802;28;20194;-75
2021/06/19 02:11:50;;;;;;;10.63;8.43;;;;;;;23.16;69.08;101045.56;5122500;28;20179;-74
2021/06/19 02:14:16;;;;;;;11.03;8.30;;;;;;;23.13;69.31;101040.19;5105501;28;20180;-76
2021/06/19 02:16:42;;;;;;;11.80;7.73;;;;;;;23.14;69.20;101042.47;5105896;28;20174;-74
2021/06/19 02:19:08;;;;;;;15.53;8.23;;;;;;;23.13;69.12;101051.47;5122547;28;20213;-74
2021/06/19 02:21:33;;;;;;;15.90;8.17;;;;;;;23.15;69.05;101048.91;5105560;28;20174;-75
2021/06/19 02:23:59;;;;;;;13.30;7.97;;;;;;;23.15;68.98;101054.56;5122481;28;20158;-74
2021/06/19 02:26:24;;;;;;;13.80;7.43;;;;;;;23.13;68.90;101049.41;5088479;28;20181;-74
2021/06/19 02:28:50;;;;;;;10.93;8.00;;;;;;;23.12;69.22;101056.34;5105323;28;20202;-75
2021/06/19 02:31:16;;;;;;;10.07;7.80;;;;;;;23.07;69.47;101054.28;5088501;28;20180;-75
2021/06/19 02:33:43;;;;;;;12.23;8.80;;;;;;;23.08;69.54;101055.06;5105280;28;20181;-75
2021/06/19 02:36:09;;;;;;;11.30;8.13;;;;;;;23.08;69.45;101052.22;5105742;28;20213;-75
2021/06/19 02:38:34;;;;;;;15.97;8.63;;;;;;;23.12;69.37;101056.34;5105314;28;20170;-73
2021/06/19 02:41:00;;;;;;;16.97;8.07;;;;;;;23.10;69.39;101056.09;5105616;28;20200;-73
2021/06/19 02:43:25;;;;;;;14.07;7.77;;;;;;;23.10;69.24;101058.13;5105245;28;20170;-74
2021/06/19 02:45:51;;;;;;;13.70;8.00;;;;;;;23.05;69.55;101053.25;5105084;28;20173;-75
2021/06/19 02:48:16;;;;;;;13.80;7.43;;;;;;;23.06;69.58;101041.44;5121914;28;20241;-74
2021/06/19 02:50:43;;;;;;;12.80;7.37;;;;;;;23.09;69.52;101045.28;5123013;28;20170;-76
2021/06/19 02:53:31;;;;;;;13.20;7.63;;;;;;;23.14;69.59;101044.53;5140531;27;20532;-74
2021/06/19 02:58:05;;;;;;;13.80;7.90;;;;;;;23.16;69.30;101054.06;5140688;27;20527;-74
2021/06/19 03:00:31;;;;;;;10.90;7.10;;;;;;;23.18;69.51;101051.50;5124350;28;20204;-74
2021/06/19 03:02:56;;;;;;;15.90;8.00;;;;;;;23.17;69.45;101055.59;5123064;28;20171;-74
2021/06/19 03:05:23;;;;;;;12.83;7.47;;;;;;;23.23;69.36;101047.19;5106109;28;20178;-73
2021/06/19 03:07:49;;;;;;;15.80;7.47;;;;;;;23.26;69.35;101048.97;5123142;28;20175;-73
2021/06/19 03:10:16;;;;;;;14.97;7.97;;;;;;;23.28;69.44;101050.00;5106038;28;20171;-74
2021/06/19 03:13:38;;;;;;;10.53;6.80;;;;;;;23.37;69.21;101051.81;5140623;27;20535;-74
2021/06/19 03:16:04;;;;;;;9.87;7.37;;;;;;;23.38;69.10;101037.19;5106077;28;20174;-74
2021/06/19 03:18:33;;;;;;;15.20;7.60;;;;;;;23.36;68.80;101030.50;5089179;28;20565;-73
2021/06/19 03:20:58;;;;;;;10.30;7.10;;;;;;;23.36;68.74;101039.75;5088923;28;20265;-74
2021/06/19 03:23:24;;;;;;;12.67;6.80;;;;;;;23.37;68.59;101049.78;5124187;28;20178;-74
2021/06/19 03:25:52;;;;;;;13.20;6.50;;;;;;;23.43;68.29;101049.81;5122946;28;20166;-74
2021/06/19 03:30:13;;;;;;;15.07;6.43;;;;;;;23.40;68.34;101028.97;5140481;27;20548;-74
2021/06/19 03:32:38;;;;;;;8.77;6.23;;;;;;;23.46;68.14;101041.06;5122917;28;20169;-76
2021/06/19 03:35:05;;;;;;;13.23;6.53;;;;;;;23.51;68.02;101031.03;5106061;28;20177;-75
2021/06/19 03:37:31;;;;;;;10.90;6.10;;;;;;;23.53;67.76;101028.44;5123233;28;20241;-74
2021/06/19 03:39:56;;;;;;;11.30;6.47;;;;;;;23.55;67.58;101031.56;5123223;28;20172;-74
2021/06/19 03:42:22;;;;;;;11.83;6.80;;;;;;;23.53;67.55;101026.41;5105778;28;20589;-76
2021/06/19 03:44:47;;;;;;;12.00;6.73;;;;;;;23.54;67.57;101032.84;5105992;28;20197;-75
2021/06/19 03:47:13;;;;;;;12.87;6.67;;;;;;;23.55;67.44;101040.81;5122915;28;20181;-74
2021/06/19 03:49:38;;;;;;;10.40;6.73;;;;;;;23.55;67.62;101045.72;5122985;28;20192;-74
2021/06/19 03:52:04;;;;;;;14.07;6.87;;;;;;;23.56;67.98;101041.59;5123104;28;20175;-76
2021/06/19 03:54:30;;;;;;;12.30;7.20;;;;;;;23.61;67.87;101040.81;5105924;28;20158;-75
2021/06/19 03:59:26;;;;;;;11.33;7.03;;;;;;;23.70;67.92;101043.41;5140516;27;20531;-74
2021/06/19 04:01:51;;;;;;;12.87;7.53;;;;;;;23.80;67.80;101041.88;5123258;28;20265;-74
2021/06/19 04:04:17;;;;;;;14.63;8.03;;;;;;;23.87;67.25;101042.16;5124216;28;20177;-74
2021/06/19 04:08:11;;;;;;;15.13;7.77;;;;;;;23.98;66.98;101041.38;5140466;27;21027;-74
2021/06/19 04:10:37;;;;;;;13.10;7.53;;;;;;;24.10;66.79;101037.28;5106367;28;20181;-73
2021/06/19 04:13:02;;;;;;;12.87;8.10;;;;;;;24.18;66.89;101039.06;5124261;28;20171;-74
2021/06/19 04:15:28;;;;;;;12.33;8.03;;;;;;;24.17;66.70;101029.03;5106443;28;20215;-74
2021/06/19 04:18:13;;;;;;;16.47;8.40;;;;;;;24.24;66.82;101036.22;5140606;27;20513;-74
2021/06/19 04:20:39;;;;;;;11.57;7.27;;;;;;;24.24;66.63;101030.56;5123307;28;20181;-74
2021/06/19 04:23:05;;;;;;;12.97;8.13;;;;;;;24.29;66.66;101038.28;5106411;28;20217;-74
2021/06/19 04:25:30;;;;;;;15.27;8.47;;;;;;;24.36;66.64;101035.69;5106334;28;20166;-75
2021/06/19 04:27:59;;;;;;;14.77;7.57;;;;;;;24.39;66.63;101034.66;5123557;28;20164;-74
2021/06/19 04:30:25;;;;;;;14.67;8.13;;;;;;;24.40;66.62;101038.25;5106114;28;20174;-74
2021/06/19 04:32:51;;;;;;;14.43;8.67;;;;;;;24.44;66.45;101027.44;5106138;28;20165;-74
2021/06/19 04:35:17;;;;;;;13.03;8.07;;;;;;;24.43;66.13;101026.69;5089058;28;20184;-73
2021/06/19 04:37:43;;;;;;;16.90;9.20;;;;;;;24.48;66.06;101042.91;5105902;28;20242;-74
2021/06/19 04:40:27;;;;;;;13.40;8.20;;;;;;;24.50;66.08;101048.81;5123818;28;20182;-74
2021/06/19 04:45:24;;;;;;;17.43;7.77;;;;;;;24.59;65.21;101047.78;5106610;28;20172;-74
2021/06/19 04:47:50;;;;;;;11.60;7.60;;;;;;;24.63;65.15;101048.28;5105739;28;20163;-74
2021/06/19 04:50:16;;;;;;;14.37;7.70;;;;;;;24.65;65.28;101052.16;5088559;28;20173;-74
2021/06/19 04:52:44;;;;;;;11.20;7.77;;;;;;;24.65;65.46;101045.69;5105476;28;20171;-74
2021/06/19 04:55:11;;;;;;;12.47;7.80;;;;;;;24.71;65.37;101052.91;5106065;28;20223;-74
2021/06/19 04:57:37;;;;;;;10.23;7.60;;;;;;;24.74;65.76;101056.75;5122145;28;20257;-74
2021/06/19 05:00:03;;;;;;;11.20;6.83;;;;;;;24.73;65.46;101058.84;5122277;28;20188;-74
2021/06/19 05:02:29;;;;;;;10.53;6.30;;;;;;;24.76;65.12;101057.78;5105209;28;20227;-74
2021/06/19 05:04:54;;;;;;;8.87;6.37;;;;;;;24.77;64.43;101059.31;5123518;28;20172;-74
2021/06/19 05:07:20;;;;;;;9.20;7.00;;;;;;;24.83;64.86;101056.47;5123547;28;20167;-74
2021/06/19 05:09:45;;;;;;;11.13;6.10;;;;;;;24.91;65.07;101054.63;5088355;28;20167;-76
2021/06/19 05:12:11;;;;;;;12.20;6.23;;;;;;;24.99;64.31;101058.47;5122306;28;20175;-76
2021/06/19 05:14:37;;;;;;;9.73;6.27;;;;;;;25.05;64.40;101057.16;5123203;28;20166;-74
2021/06/19 05:17:02;;;;;;;9.57;5.97;;;;;;;25.17;63.61;101063.56;5104928;28;20233;-76
2021/06/19 05:19:28;;;;;;;10.80;6.07;;;;;;;25.22;63.50;101060.69;5122214;28;20175;-76
2021/06/19 05:21:54;;;;;;;11.57;5.60;;;;;;;25.30;63.91;101058.09;5123097;28;20579;-74
2021/06/19 05:24:19;;;;;;;9.20;5.57;;;;;;;25.34;63.75;101062.19;5104611;28;20186;-74
2021/06/19 05:26:45;;;;;;;7.90;5.83;;;;;;;25.41;63.89;101058.81;5104613;28;20163;-74
2021/06/19 05:29:10;;;;;;;10.43;5.30;;;;;;;25.44;63.08;101057.00;5110430;28;20187;-76
2021/06/19 05:31:36;;;;;;;7.57;5.00;;;;;;;25.47;62.61;101051.03;5108026;28;20197;-74
2021/06/19 05:34:01;;;;;;;7.37;4.97;;;;;;;25.53;62.61;101053.84;5108080;28;20179;-74
2021/06/19 05:36:27;;;;;;;9.07;4.83;;;;;;;25.55;62.65;101054.09;5090941;28;20211;-74
2021/06/19 05:38:55;;;;;;;9.57;4.77;;;;;;;25.50;62.77;101066.25;5107977;28;20187;-76
2021/06/19 05:41:21;;;;;;;7.50;4.93;;;;;;;25.51;62.57;101059.25;5091409;28;20708;-74
2021/06/19 05:43:47;;;;;;;6.87;5.30;;;;;;;25.56;62.38;101058.47;5091068;28;20198;-76
2021/06/19 05:46:12;;;;;;;7.60;5.00;;;;;;;25.62;62.81;101062.81;5090750;28;20232;-74
2021/06/19 05:48:38;;;;;;;9.43;5.20;;;;;;;25.67;62.70;101053.50;5108989;28;20171;-74
2021/06/19 05:51:04;;;;;;;7.13;4.87;;;;;;;25.80;61.77;101062.16;5090873;28;20648;-74
2021/06/19 05:53:29;;;;;;;8.33;5.17;;;;;;;25.93;60.84;101061.56;5107768;28;20258;-74
2021/06/19 05:55:58;;;;;;;7.73;5.00;;;;;;;26.03;61.08;101057.09;5090938;28;20199;-76
2021/06/19 05:58:23;;;;;;;6.60;5.03;;;;;;;26.15;61.09;101065.00;5108813;28;20167;-76
2021/06/19 06:00:49;;;;;;;7.83;5.17;;;;;;;26.26;60.75;101062.06;5090973;28;20195;-74
2021/06/19 06:03:14;;;;;;;7.80;5.40;;;;;;;26.35;60.53;101058.88;5090582;28;20166;-74
2021/06/19 06:05:40;;;;;;;7.67;4.80;;;;;;;26.36;59.70;101063.25;5107551;28;20176;-75
2021/06/19 06:08:05;;;;;;;8.80;5.07;;;;;;;26.41;59.87;101067.38;5107815;28;20593;-73
2021/06/19 06:10:31;;;;;;;5.90;4.80;;;;;;;26.40;60.30;101066.59;5107182;28;20175;-76
2021/06/19 06:12:57;;;;;;;5.60;4.40;;;;;;;26.38;60.52;101063.50;5108557;28;20234;-74
2021/06/19 06:15:23;;;;;;;7.23;4.67;;;;;;;26.44;60.01;101064.22;5073742;28;20183;-74
2021/06/19 06:17:49;;;;;;;6.87;4.10;;;;;;;26.47;59.44;101071.66;5089929;28;20230;-74
2021/06/19 06:20:15;;;;;;;6.27;4.50;;;;;;;26.50;59.66;101067.78;5090289;28;20167;-74
2021/06/19 06:22:40;;;;;;;8.30;4.07;;;;;;;26.55;60.19;101069.81;5107368;28;20244;-74
2021/06/19 06:25:06;;;;;;;8.00;4.30;;;;;;;26.57;59.73;101070.03;5107295;28;20171;-74
2021/06/19 06:27:32;;;;;;;4.77;4.27;;;;;;;26.62;59.24;101062.78;5090182;28;20182;-74
2021/06/19 06:29:57;;;;;;;5.83;3.73;;;;;;;26.67;58.21;101065.53;5107166;28;20159;-76
2021/06/19 06:32:23;;;;;;;6.10;3.63;;;;;;;26.70;58.30;101058.81;5073389;28;20240;-76
2021/06/19 06:34:48;;;;;;;5.03;3.63;;;;;;;26.76;57.11;101064.44;5073198;28;20167;-73
2021/06/19 06:37:14;;;;;;;6.47;3.93;;;;;;;26.78;57.63;101056.91;5106666;28;20232;-76
2021/06/19 06:39:39;;;;;;;7.60;4.00;;;;;;;26.83;58.11;101058.94;5088987;28;20174;-74
2021/06/19 06:42:05;;;;;;;6.90;3.90;;;;;;;26.92;56.99;101066.31;5089772;28;20179;-74
2021/06/19 06:44:31;;;;;;;7.03;4.50;;;;;;;26.98;57.83;101059.25;5107046;28;20163;-73
2021/06/19 06:46:57;;;;;;;6.33;4.40;;;;;;;27.04;57.55;101051.44;5107915;28;20171;-76
2021/06/19 06:49:22;;;;;;;7.20;4.37;;;;;;;27.10;57.46;101057.03;5089491;28;20182;-75
2021/06/19 06:51:48;;;;;;;6.23;3.97;;;;;;;27.16;57.33;101058.50;5072884;28;20179;-75
2021/06/19 06:54:14;;;;;;;10.77;4.23;;;;;;;27.22;56.70;101059.22;5089672;28;20167;-75
2021/06/19 06:56:40;;;;;;;4.83;4.17;;;;;;;27.26;56.36;101054.00;5107646;28;20210;-78
2021/06/19 06:59:05;;;;;;;5.27;4.20;;;;;;;27.30;56.24;101059.38;5089607;28;20179;-77
2021/06/19 07:01:31;;;;;;;6.60;4.03;;;;;;;27.31;56.82;101052.38;5106499;28;20323;-77
2021/06/19 07:03:58;;;;;;;7.63;4.77;;;;;;;27.38;56.80;101046.09;5089381;28;20209;-75
2021/06/19 07:06:24;;;;;;;6.77;4.37;;;;;;;27.40;56.35;101040.63;5089780;28;20171;-75
2021/06/19 07:08:49;;;;;;;7.10;4.07;;;;;;;27.48;55.84;101047.25;5089535;28;20220;-75
2021/06/19 07:11:15;;;;;;;6.90;4.27;;;;;;;27.50;55.74;101047.47;5106292;28;20174;-75
2021/06/19 07:13:40;;;;;;;5.47;4.07;;;;;;;27.54;55.53;101051.53;5106357;28;20179;-75
2021/06/19 07:16:07;;;;;;;4.80;4.30;;;;;;;27.56;55.93;101053.84;5088865;28;20163;-75
2021/06/19 07:18:32;;;;;;;5.43;3.57;;;;;;;27.57;55.37;101043.97;5106298;28;20171;-75
2021/06/19 07:20:58;;;;;;;6.33;3.50;;;;;;;27.60;54.71;101046.53;5106297;28;20163;-75
2021/06/19 07:23:25;;;;;;;6.23;3.50;;;;;;;27.65;55.21;101042.06;5106151;28;20243;-75
2021/06/19 07:25:52;;;;;;;5.00;3.70;;;;;;;27.70;55.08;101046.91;5105933;28;20648;-75
2021/06/19 07:28:17;;;;;;;4.40;3.20;;;;;;;27.74;53.90;101041.66;5089195;28;20178;-77
2021/06/19 07:30:43;;;;;;;5.73;3.43;;;;;;;27.78;54.01;101031.47;5105905;28;20550;-75
2021/06/19 07:33:08;;;;;;;7.43;3.83;;;;;;;27.82;53.60;101034.03;5072172;28;20167;-75
2021/06/19 07:35:34;;;;;;;6.53;4.27;;;;;;;27.87;54.00;101045.34;5105859;28;20538;-77
2021/06/19 07:37:59;;;;;;;6.63;4.10;;;;;;;27.90;54.12;101038.56;5107042;28;20202;-75
2021/06/19 07:40:26;;;;;;;6.27;4.10;;;;;;;27.87;53.69;101011.19;5072071;28;20633;-75
2021/06/19 07:42:52;;;;;;;5.43;4.27;;;;;;;28.00;53.23;101033.25;5089000;28;20194;-75
2021/06/19 07:45:17;;;;;;;6.67;4.20;;;;;;;28.04;53.70;101028.75;5105499;28;20167;-75
2021/06/19 07:47:43;;;;;;;6.50;4.23;;;;;;;28.09;53.43;101041.38;5106895;28;20167;-75
2021/06/19 07:50:09;;;;;;;6.20;4.30;;;;;;;28.13;53.62;101033.25;5105570;28;20167;-75
2021/06/19 07:52:34;;;;;;;7.00;4.30;;;;;;;28.12;53.75;101029.66;5106313;28;20648;-75
2021/06/19 07:55:00;;;;;;;5.90;3.83;;;;;;;28.18;54.15;101032.38;5105613;28;20187;-75
2021/06/19 07:57:25;;;;;;;6.27;3.83;;;;;;;28.20;53.25;101027.69;5105320;28;20195;-75
2021/06/19 07:59:51;;;;;;;7.87;4.40;;;;;;;28.28;52.84;101039.22;5071568;28;20183;-75
2021/06/19 08:02:17;;;;;;;8.43;4.30;;;;;;;28.37;52.75;101038.78;5071670;28;20170;-76
2021/06/19 08:04:43;;;;;;;5.77;4.40;;;;;;;28.40;52.75;101032.03;5105609;28;20197;-75
2021/06/19 08:07:10;;;;;;;6.60;4.37;;;;;;;28.43;52.55;101033.78;5088592;28;20167;-75
2021/06/19 08:09:36;;;;;;;7.80;4.60;;;;;;;28.50;52.41;101030.28;5088962;28;20167;-75
2021/06/19 08:12:01;;;;;;;7.53;4.53;;;;;;;28.52;52.32;101031.28;5105178;28;20171;-76
2021/06/19 08:14:27;;;;;;;9.90;4.93;;;;;;;28.50;51.73;101033.91;5071707;28;20174;-75
2021/06/19 08:16:55;;;;;;;7.57;5.27;;;;;;;28.57;52.52;101027.56;5088078;28;20234;-77
2021/06/19 08:19:20;;;;;;;7.13;5.03;;;;;;;28.65;52.45;101039.81;5088457;28;20167;-75
2021/06/19 08:21:46;;;;;;;6.23;4.57;;;;;;;28.72;52.02;101029.84;5088199;28;20187;-76
2021/06/19 08:24:12;;;;;;;6.30;4.50;;;;;;;28.82;51.92;101034.53;5088358;28;20226;-75
2021/06/19 08:26:37;;;;;;;6.57;4.50;;;;;;;28.93;51.96;101039.28;5088004;28;20218;-76
2021/06/19 08:29:04;;;;;;;7.93;4.70;;;;;;;29.00;51.12;101030.06;5106421;28;20182;-75
2021/06/19 08:31:35;;;;;;;6.00;4.50;;;;;;;29.13;51.53;101027.19;5105281;28;20251;-76
2021/06/19 08:34:01;;;;;;;5.30;4.80;;;;;;;29.25;51.04;101032.13;5071967;28;20186;-75
2021/06/19 08:36:27;;;;;;;8.23;4.70;;;;;;;29.33;51.09;101032.97;5105211;28;20218;-75
2021/06/19 08:40:49;;;;;;;7.27;4.83;;;;;;;29.56;50.46;101028.31;5140304;27;20530;-76
2021/06/19 08:43:16;;;;;;;8.40;5.00;;;;;;;29.66;50.00;101017.94;5089000;28;20186;-78
2021/06/19 08:45:42;;;;;;;7.78;5.30;;;;;;;29.75;49.61;101019.56;5089714;28;20166;-78
2021/06/19 08:48:08;;;;;;;7.30;5.20;;;;;;;29.86;49.78;101028.63;5106100;28;20173;-78
2021/06/19 08:50:36;;;;;;;7.05;4.95;;;;;;;29.95;50.24;101025.25;5106120;28;20158;-75
2021/06/19 08:53:02;;;;;;;10.60;5.47;;;;;;;30.13;50.07;101026.41;5106549;28;20234;-76
2021/06/19 08:55:28;;;;;;;8.05;5.45;;;;;;;30.27;49.32;101022.91;5122686;28;20162;-76
2021/06/19 08:57:54;;;;;;;6.22;5.25;;;;;;;30.39;48.86;101027.00;5124016;28;20185;-78
2021/06/19 09:00:20;;;;;;;8.07;5.22;;;;;;;30.46;49.08;101017.69;5105386;28;20206;-78
2021/06/19 09:02:47;;;;;;;7.00;5.70;;;;;;;30.59;49.22;101029.03;5105912;28;20179;-75
2021/06/19 09:05:14;;;;;;;7.85;5.30;;;;;;;30.68;48.83;101022.84;5122820;28;20162;-75
2021/06/19 09:07:46;;;;;;;10.50;5.30;;;;;;;30.87;48.75;101026.19;5123918;28;20166;-75
2021/06/19 09:10:27;;;;;;;8.63;5.53;;;;;;;31.07;47.89;101025.31;5122461;28;20155;-76
2021/06/19 09:12:56;;;;;;;7.68;6.10;;;;;;;31.19;47.64;101009.34;5123013;28;20170;-78
2021/06/19 09:15:22;;;;;;;7.95;5.80;;;;;;;31.36;47.08;101017.44;5123872;28;20195;-78
2021/06/19 09:18:04;;;;;;;8.48;5.97;;;;;;;31.59;46.74;101016.16;5105705;28;20170;-76
2021/06/19 09:20:35;;;;;;;7.80;5.47;;;;;;;31.70;46.46;101007.22;5105931;28;20224;-76
2021/06/19 09:23:02;;;;;;;7.80;5.25;;;;;;;31.79;45.93;101011.66;5122574;28;20183;-76
2021/06/19 09:25:27;;;;;;;7.30;5.55;;;;;;;31.94;45.95;101014.53;5105558;28;20194;-78
2021/06/19 09:27:55;;;;;;;7.13;5.22;;;;;;;32.08;45.34;101010.13;5105123;28;20178;-76
2021/06/19 09:30:22;;;;;;;9.70;5.25;;;;;;;32.22;44.49;101008.59;5122267;28;20155;-78
2021/06/19 09:32:55;;;;;;;9.18;5.55;;;;;;;32.42;43.53;101002.69;5105509;28;20182;-76
2021/06/19 09:35:26;;;;;;;7.90;5.13;;;;;;;32.56;43.38;100994.63;5088924;28;20178;-76
2021/06/19 09:37:54;;;;;;;8.25;5.22;;;;;;;32.72;43.07;100987.50;5105593;28;20190;-78
2021/06/19 09:40:42;;;;;;;5.97;5.18;;;;;;;33.02;42.83;100993.91;5105110;28;20230;-76
2021/06/19 09:43:21;;;;;;;7.07;5.47;;;;;;;33.23;42.37;100994.41;5106222;28;20178;-76
2021/06/19 09:46:04;;;;;;;7.47;4.68;;;;;;;33.46;41.68;100992.19;5121946;28;20179;-77
2021/06/19 09:48:30;;;;;;;5.22;3.92;;;;;;;33.65;40.22;100991.69;5088111;28;20201;-76
2021/06/19 09:51:14;;;;;;;5.75;4.15;;;;;;;33.96;39.30;100993.78;5115161;28;20186;-76
2021/06/19 09:53:40;;;;;;;8.35;4.30;;;;;;;34.21;38.34;100985.91;5109672;28;20296;-76
2021/06/19 09:56:11;;;;;;;5.38;3.67;;;;;;;34.47;36.83;100990.28;5091405;28;20175;-78
2021/06/19 09:58:37;;;;;;;6.32;3.40;;;;;;;34.76;35.53;100986.31;5091087;28;20175;-76
2021/06/19 10:01:03;;;;;;;4.55;3.45;;;;;;;35.08;35.32;100980.38;5108370;28;20171;-76
2021/06/19 10:03:28;;;;;;;4.18;3.17;;;;;;;35.38;34.79;100987.88;5091148;28;20162;-76
2021/06/19 10:05:54;;;;;;;3.60;2.78;;;;;;;35.72;34.39;100984.91;5091285;28;20606;-78
2021/06/19 10:08:19;;;;;;;5.18;2.90;;;;;;;36.13;32.60;100975.91;5108109;28;20170;-76
2021/06/19 10:10:45;;;;;;;3.92;2.60;;;;;;;36.68;31.97;100975.91;5074248;28;20633;-76
2021/06/19 10:13:12;;;;;;;4.05;2.80;;;;;;;37.23;30.89;100972.06;5090600;28;20200;-76
2021/06/19 10:15:37;;;;;;;5.45;3.10;;;;;;;37.75;30.55;100967.97;5090873;28;20247;-78
2021/06/19 10:18:03;;;;;;;10.63;3.45;;;;;;;38.46;29.86;100967.91;5074266;28;20190;-78
2021/06/19 10:20:30;;;;;;;4.30;3.00;;;;;;;39.22;29.18;100969.38;5074042;28;20191;-76
2021/06/19 10:22:56;;;;;;;4.53;2.85;;;;;;;39.99;27.93;100962.06;5107778;28;20168;-77
2021/06/19 10:25:26;;;;;;;4.93;3.05;;;;;;;40.99;27.07;100964.50;5107696;28;20183;-77
2021/06/19 10:27:51;;;;;;;6.43;2.50;;;;;;;41.93;25.64;100958.94;5091355;28;20175;-76
2021/06/19 10:30:17;;;;;;;4.45;2.65;;;;;;;43.07;23.79;100953.25;5090559;28;20179;-76
2021/06/19 10:32:47;;;;;;;3.03;2.60;;;;;;;44.57;22.48;100962.44;5090847;28;20178;-77
2021/06/19 10:35:23;;;;;;;3.72;2.40;;;;;;;46.06;20.55;100949.44;5107202;28;20161;-78
2021/06/19 10:37:49;;;;;;;6.15;2.20;;;;;;;47.66;18.50;100943.09;5090990;28;20249;-78
2021/06/19 10:40:22;;;;;;;4.75;2.30;;;;;;;49.18;17.48;100933.25;5073382;28;20254;-76
2021/06/19 10:42:49;;;;;;;4.10;2.30;;;;;;;50.43;16.48;100928.53;5107424;28;20162;-77
2021/06/19 10:45:22;;;;;;;2.95;1.80;;;;;;;51.65;14.68;100934.84;5090426;28;20175;-78
2021/06/19 10:48:01;;;;;;;2.72;1.80;;;;;;;52.80;13.06;100914.66;5107456;28;20175;-79
2021/06/19 10:50:27;;;;;;;1.83;1.60;;;;;;;53.89;11.71;100910.78;5108258;28;20169;-76
2021/06/19 10:53:04;;;;;;;3.22;1.95;;;;;;;54.59;11.68;100886.38;5108285;28;20181;-77
2021/06/19 10:55:30;;;;;;;3.47;1.90;;;;;;;55.04;11.30;100882.63;5090126;28;20174;-76
2021/06/19 10:58:01;;;;;;;2.83;1.83;;;;;;;56.13;10.11;100880.63;5106979;28;20166;-77
2021/06/19 11:00:41;;;;;;;3.13;2.00;;;;;;;57.37;9.31;100876.41;5090187;28;20229;-76
2021/06/19 11:03:07;;;;;;;4.30;2.50;;;;;;;58.18;9.65;100867.78;5106945;28;20645;-79
2021/06/19 11:05:45;;;;;;;4.00;2.65;;;;;;;58.87;9.13;100850.13;5106802;28;20184;-76
2021/06/19 11:08:10;;;;;;;3.25;2.92;;;;;;;59.99;8.61;100852.16;5106891;28;20182;-76
2021/06/19 11:10:48;;;;;;;3.95;3.58;;;;;;;60.88;8.51;100840.03;5106794;28;20198;-77
2021/06/19 11:13:32;;;;;;;4.75;3.55;;;;;;;61.27;7.96;100831.38;5107796;28;20212;-77
2021/06/19 11:15:58;;;;;;;4.22;3.80;;;;;;;60.92;7.96;100818.22;5106604;28;20318;-77
2021/06/19 11:18:49;;;;;;;4.18;3.88;;;;;;;61.37;7.24;100816.09;5106632;28;20186;-77
2021/06/19 11:21:19;;;;;;;4.80;4.40;;;;;;;61.08;7.51;100808.75;5107568;28;20170;-76
2021/06/19 11:24:00;;;;;;;4.35;3.65;;;;;;;59.77;8.03;100796.59;5089726;28;20580;-77
2021/06/19 11:26:54;;;;;;;2.88;2.45;;;;;;;55.86;10.19;100781.16;5107521;28;20180;-77
2021/06/19 11:29:35;;;;;;;3.22;2.22;;;;;;;55.21;10.54;100779.34;5107724;28;20170;-77
2021/06/19 11:32:32;;;;;;;2.63;1.77;;;;;;;55.88;9.82;100769.28;5107380;28;20175;-77
2021/06/19 11:35:02;;;;;;;2.40;2.20;;;;;;;57.35;9.60;100759.47;5106335;28;20163;-79
2021/06/19 11:37:54;;;;;;;2.28;2.00;;;;;;;59.04;8.62;100776.56;5106270;28;20167;-77
2021/06/19 11:40:30;;;;;;;3.20;2.40;;;;;;;59.24;8.41;100760.47;5106059;28;20226;-76